Aeroporto :
LOGIN :

Iscrizione | Disclaimer

   EN    FR    IT 

 










Sommario :    VFR   VFR Marginale   IFR   IFR Intensivo   IFR Molto Intensivo
Visibilità : 
Base nubi : 
>= 8 km
>= 3000ft
5 / 8 km
1000 / 3000 ft
1500m / 5 km
500 / 1000 ft
800 / 1500m
200 / 500 ft
< 800m
< 200 ft
Simboli :   Temporali  Nebbia  Neve Forte  Precipitazioni Forti  Vento > 20 kt
SIGMETs :   Varie  Temporali  Ghiacco  Turbolenza  Onda orograficha  Ceneri Vulcaniche






- Altitudine del aeroporto : 231 ft
- Codice IATA : WTN


EGXW - RAF Waddington

ULTIMO METAR :
  • 122250Z AUTO 31010KT 9999 BKN023/// BKN100/// 07/03 Q0998

METARs OBSOLETI :
  • 122150Z 32011KT 9999 BKN023 07/03 Q0997 RMK WHT
  • 122120Z 31013KT 9999 BKN022 07/03 Q0997 NOSIG RMK WHT WHT
  • 122050Z 31012KT 9999 BKN022 07/04 Q0997 TEMPO BKN025 RMK WHT TEMPO BLU
  • 122020Z 31012KT 9999 BKN022 08/04 Q0996 TEMPO BKN025 RMK WHT TEMPO BLU

TAF TAF EGXW
Valido dal 12 a 21 ore il 13 a 15 ore UTC


121932Z 1221/1315 29012KT 9999 SCT030
PROB40
TEMPO 1221/1303 SCT020
PROB30
TEMPO 1221/1303 SCT010
PROB30
TEMPO 1311/1315 SCT015



MetMap, La meteo Aeronautica in un colpo d'occhio ! - Copyright ORBIFLY Dicembre 2007 - Disclaimer

ORBIFLY MET'MAP TEAM :

Programmazione e sviluppo : Alexandra Zaïnal
Concezione e sviluppo : Baudouin d'Aumeries
Co-Programmazione e sviluppo : Marc-Olivier Méhu
Supporto tecnico e logistico : Manuel Goepfert
Aiuto per la traduzione : Arnaldo La Scala

Contatto : metmap@orbifly.com




FONTI E CREDITI :

   NOAA